Time;durP1;ratioP1;P1;durP2;ratioP2;P2;SDS_P1;SDS_P2;PMS_P1;PMS_P2;Temp;Humidity;BMP_temperature;BMP_pressure;BME280_temperature;BME280_humidity;BME280_pressure;Samples;Min_cycle;Max_cycle;Signal;HPM_P1;HPM_P2
2021/06/23 00:00:44;;;;;;;7.53;2.35;;;;;;;25.47;37.75;100186.31;5072067;28;20044;-67
2021/06/23 00:03:10;;;;;;;6.40;2.13;;;;;;;25.43;37.81;100198.31;5056071;28;20163;-67
2021/06/23 00:05:37;;;;;;;7.57;2.88;;;;;;;25.42;37.54;100202.00;5048979;28;20075;-67
2021/06/23 00:08:05;;;;;;;6.30;2.63;;;;;;;25.41;37.53;100213.69;5048095;28;20094;-67
2021/06/23 00:10:31;;;;;;;7.57;2.38;;;;;;;25.39;37.53;100209.50;5049454;28;20403;-67
2021/06/23 00:13:04;;;;;;;10.27;2.30;;;;;;;25.36;37.69;100208.03;5049485;28;20041;-67
2021/06/23 00:15:31;;;;;;;6.72;3.03;;;;;;;25.42;37.51;100204.66;5049031;28;20033;-67
2021/06/23 00:17:58;;;;;;;9.20;2.35;;;;;;;25.38;37.29;100222.03;5048865;28;20063;-67
2021/06/23 00:20:25;;;;;;;6.35;2.60;;;;;;;25.37;37.28;100212.38;5048917;28;20609;-68
2021/06/23 00:22:53;;;;;;;10.43;2.90;;;;;;;25.39;37.29;100210.34;5048624;28;20087;-67
2021/06/23 00:25:20;;;;;;;7.70;2.78;;;;;;;25.33;37.54;100211.03;5047560;28;23203;-67
2021/06/23 00:27:47;;;;;;;18.00;5.40;;;;;;;25.27;37.62;100207.22;5049291;28;20062;-68
2021/06/23 00:30:14;;;;;;;8.30;2.55;;;;;;;25.29;37.66;100212.38;5048735;28;20048;-66
2021/06/23 00:32:43;;;;;;;7.03;2.50;;;;;;;25.27;37.69;100207.22;5048873;28;20037;-68
2021/06/23 00:35:11;;;;;;;11.60;2.47;;;;;;;25.28;37.47;100206.22;5049316;28;20045;-68
2021/06/23 00:37:38;;;;;;;4.18;2.10;;;;;;;25.27;37.92;100211.72;5047834;28;20063;-68
2021/06/23 00:40:06;;;;;;;9.10;2.90;;;;;;;25.23;37.69;100216.56;5048879;28;21621;-68
2021/06/23 00:42:35;;;;;;;7.45;2.88;;;;;;;25.16;37.99;100220.09;5048462;28;20037;-68
2021/06/23 00:45:07;;;;;;;9.90;3.95;;;;;;;25.13;38.44;100220.44;5048980;28;20045;-67
2021/06/23 00:47:35;;;;;;;3.00;1.85;;;;;;;25.06;38.66;100221.13;5048144;28;20045;-67
2021/06/23 00:50:05;;;;;;;6.95;2.85;;;;;;;25.07;38.40;100216.63;5049231;28;20040;-67
2021/06/23 00:52:45;;;;;;;7.47;2.50;;;;;;;25.07;38.41;100217.44;5048648;28;20041;-67
2021/06/23 00:55:32;;;;;;;12.65;2.53;;;;;;;25.08;38.09;100213.78;5047932;28;20049;-67
2021/06/23 00:57:59;;;;;;;5.55;2.40;;;;;;;25.07;38.56;100216.63;5047028;28;20114;-67
2021/06/23 01:00:32;;;;;;;7.28;2.58;;;;;;;25.03;38.42;100215.25;5048548;28;20045;-66
2021/06/23 01:03:02;;;;;;;3.50;2.25;;;;;;;24.99;38.66;100213.97;5048810;28;20131;-67
2021/06/23 01:05:32;;;;;;;7.47;2.47;;;;;;;25.00;38.60;100216.44;5049127;28;20053;-67
2021/06/23 01:08:00;;;;;;;3.65;2.08;;;;;;;24.99;38.77;100211.28;5047437;28;20049;-67
2021/06/23 01:10:31;;;;;;;8.57;2.42;;;;;;;24.96;38.85;100215.13;5064229;28;20056;-66
2021/06/23 01:13:03;;;;;;;8.48;2.63;;;;;;;24.91;38.85;100208.63;5049229;28;20037;-66
2021/06/23 01:15:30;;;;;;;4.82;2.00;;;;;;;24.84;39.05;100200.50;5048310;28;20393;-66
2021/06/23 01:17:58;;;;;;;9.60;2.72;;;;;;;24.79;38.95;100211.66;5044391;28;20083;-66
2021/06/23 01:20:26;;;;;;;8.75;2.25;;;;;;;24.82;38.82;100206.00;5044613;28;20041;-66
2021/06/23 01:22:54;;;;;;;7.00;2.45;;;;;;;24.68;39.17;100201.34;5044693;28;20045;-66
2021/06/23 01:25:21;;;;;;;7.80;3.63;;;;;;;24.65;39.43;100199.00;5044770;28;20516;-66
2021/06/23 01:27:48;;;;;;;6.55;3.22;;;;;;;24.66;39.53;100189.19;5047730;28;20045;-66
2021/06/23 01:30:16;;;;;;;9.23;3.28;;;;;;;24.68;39.56;100195.19;5061627;28;20099;-67
2021/06/23 01:32:47;;;;;;;12.85;2.78;;;;;;;24.65;39.82;100190.19;5046251;28;20414;-67
2021/06/23 01:35:15;;;;;;;12.10;2.97;;;;;;;24.59;39.70;100180.22;5046892;28;20057;-67
2021/06/23 01:37:43;;;;;;;5.93;2.33;;;;;;;24.56;40.34;100171.56;5046740;28;20040;-67
2021/06/23 01:40:10;;;;;;;8.85;3.53;;;;;;;24.58;40.41;100174.06;5046782;28;20401;-67
2021/06/23 01:42:38;;;;;;;9.43;2.85;;;;;;;24.52;40.52;100164.91;5046392;28;20144;-67
2021/06/23 01:45:06;;;;;;;6.07;2.95;;;;;;;24.51;40.29;100157.91;5045263;28;20510;-67
2021/06/23 01:47:32;;;;;;;6.72;2.40;;;;;;;24.48;40.08;100158.25;5046363;28;20039;-68
2021/06/23 01:50:00;;;;;;;6.35;2.42;;;;;;;24.48;40.73;100157.41;5047552;28;20054;-67
2021/06/23 01:52:29;;;;;;;9.77;3.05;;;;;;;24.42;40.48;100164.25;5046114;28;20033;-67
2021/06/23 01:54:57;;;;;;;13.63;2.85;;;;;;;24.38;40.71;100165.56;5047487;28;20040;-67
2021/06/23 01:57:26;;;;;;;10.90;2.53;;;;;;;24.40;40.35;100160.09;5045611;28;20124;-67
2021/06/23 01:59:56;;;;;;;4.50;2.70;;;;;;;24.41;40.43;100157.25;5045960;28;20041;-67
2021/06/23 02:03:09;;;;;;;7.93;2.22;;;;;;;24.35;40.13;100152.59;5046547;28;20423;-67
2021/06/23 02:06:05;;;;;;;19.95;4.07;;;;;;;24.32;40.15;100163.56;5061615;28;20286;-67
2021/06/23 02:08:59;;;;;;;8.88;2.88;;;;;;;24.22;40.38;100157.56;5046835;28;20119;-67
2021/06/23 02:11:45;;;;;;;6.85;2.67;;;;;;;24.19;40.61;100153.41;5047290;28;20073;-66
2021/06/23 02:14:40;;;;;;;9.55;2.80;;;;;;;24.16;40.56;100150.25;5045132;28;20167;-66
2021/06/23 02:17:33;;;;;;;6.65;2.30;;;;;;;24.16;40.76;100151.06;5044999;28;20144;-66
2021/06/23 02:20:30;;;;;;;9.77;3.05;;;;;;;24.13;40.78;100148.75;5044556;28;20045;-66
2021/06/23 02:23:11;;;;;;;10.25;3.45;;;;;;;24.11;41.08;100147.25;5062370;28;21020;-66
2021/06/23 02:25:40;;;;;;;6.15;2.65;;;;;;;24.12;40.90;100154.22;5062623;28;20045;-66
2021/06/23 02:28:28;;;;;;;7.22;2.03;;;;;;;24.16;40.69;100158.22;5044706;28;20049;-66
2021/06/23 02:30:56;;;;;;;5.97;2.38;;;;;;;24.15;40.48;100159.22;5059808;28;20033;-65
2021/06/23 02:33:23;;;;;;;8.30;2.70;;;;;;;24.08;40.91;100164.41;5045308;28;20056;-65
2021/06/23 02:35:57;;;;;;;7.20;2.60;;;;;;;24.02;40.93;100167.69;5045141;28;20131;-66
2021/06/23 02:38:33;;;;;;;7.55;2.30;;;;;;;24.02;40.81;100163.22;5046440;28;20056;-66
2021/06/23 02:41:02;;;;;;;9.30;3.20;;;;;;;24.08;41.06;100163.56;5044752;28;20132;-66
2021/06/23 02:43:30;;;;;;;7.88;3.63;;;;;;;24.01;40.99;100166.88;5061763;28;20041;-66
2021/06/23 02:46:05;;;;;;;8.52;3.38;;;;;;;23.97;41.12;100168.22;5045026;28;20053;-68
2021/06/23 02:48:32;;;;;;;15.05;3.13;;;;;;;23.92;41.41;100167.88;5046669;28;20498;-68
2021/06/23 02:51:20;;;;;;;6.15;2.67;;;;;;;23.90;41.43;100175.19;5048091;28;20080;-66
2021/06/23 02:53:53;;;;;;;6.28;2.42;;;;;;;23.93;41.52;100177.53;5045612;28;20073;-66
2021/06/23 02:56:24;;;;;;;7.82;2.60;;;;;;;23.90;41.51;100185.81;5044891;28;20045;-66
2021/06/23 02:58:51;;;;;;;7.57;2.58;;;;;;;23.87;41.58;100188.84;5044763;28;20040;-66
2021/06/23 03:01:19;;;;;;;8.80;2.83;;;;;;;23.91;41.68;100192.81;5044100;28;20033;-66
2021/06/23 03:03:52;;;;;;;3.50;2.35;;;;;;;23.83;42.16;100186.66;5045815;28;20052;-66
2021/06/23 03:06:24;;;;;;;5.40;2.40;;;;;;;23.69;42.88;100191.59;5044838;28;20370;-66
2021/06/23 03:08:53;;;;;;;8.65;2.70;;;;;;;23.66;42.72;100209.75;5044782;28;20047;-66
2021/06/23 03:11:41;;;;;;;9.70;2.97;;;;;;;23.72;42.63;100209.94;5047426;28;20052;-66
2021/06/23 03:14:46;;;;;;;7.05;3.65;;;;;;;23.78;42.29;100219.09;5005427;28;20046;-66
2021/06/23 03:17:14;;;;;;;6.93;2.90;;;;;;;23.61;43.16;100228.81;4988693;28;20042;-66
2021/06/23 03:19:41;;;;;;;7.63;2.65;;;;;;;23.48;43.36;100221.28;5025658;28;20444;-67
2021/06/23 03:22:09;;;;;;;10.52;2.80;;;;;;;23.45;43.43;100224.28;5062782;28;20044;-66
2021/06/23 03:24:38;;;;;;;10.35;2.30;;;;;;;23.45;43.43;100210.97;5045635;28;20041;-66
2021/06/23 03:27:06;;;;;;;11.27;3.25;;;;;;;23.44;43.63;100219.94;5047254;28;20391;-67
2021/06/23 03:29:35;;;;;;;5.25;2.65;;;;;;;23.49;43.77;100224.78;5046394;28;20040;-67
2021/06/23 03:32:06;;;;;;;9.57;2.72;;;;;;;23.55;43.43;100225.97;5046936;28;20045;-66
2021/06/23 03:34:35;;;;;;;6.80;2.63;;;;;;;23.51;43.78;100228.94;5044754;28;20446;-66
2021/06/23 03:37:03;;;;;;;12.10;2.75;;;;;;;23.48;43.24;100239.06;5046411;28;20065;-66
2021/06/23 03:39:34;;;;;;;16.45;3.78;;;;;;;23.56;43.40;100240.94;5045868;28;20052;-67
2021/06/23 03:42:05;;;;;;;5.15;2.13;;;;;;;23.59;43.10;100241.44;5045376;28;20048;-66
2021/06/23 03:44:32;;;;;;;6.45;2.60;;;;;;;23.58;42.86;100233.63;5045224;28;20037;-68
2021/06/23 03:47:01;;;;;;;8.20;3.22;;;;;;;23.53;43.36;100247.41;5045688;28;20052;-68
2021/06/23 03:49:30;;;;;;;11.35;2.70;;;;;;;23.49;43.58;100238.94;5045559;28;20029;-67
2021/06/23 03:51:59;;;;;;;10.25;3.72;;;;;;;23.46;43.38;100255.19;5045653;28;20048;-68
2021/06/23 03:54:26;;;;;;;10.75;3.10;;;;;;;23.38;43.84;100265.78;5046284;28;20099;-68
2021/06/23 03:56:57;;;;;;;8.00;3.10;;;;;;;23.35;44.05;100263.47;5044421;28;20037;-68
2021/06/23 03:59:24;;;;;;;8.88;2.95;;;;;;;23.37;43.94;100266.78;5061025;28;20041;-67
2021/06/23 04:01:52;;;;;;;14.75;3.03;;;;;;;23.34;43.71;100261.81;5044700;28;20112;-67
2021/06/23 04:04:19;;;;;;;12.43;2.85;;;;;;;23.40;43.99;100269.13;5045694;28;20037;-67
2021/06/23 04:07:05;;;;;;;13.02;4.70;;;;;;;23.44;43.53;100270.50;5047883;28;20063;-67
2021/06/23 04:09:32;;;;;;;11.90;3.67;;;;;;;23.48;43.20;100265.66;5050299;28;20037;-67
2021/06/23 04:12:03;;;;;;;16.17;3.70;;;;;;;23.51;43.39;100262.72;5053291;28;20037;-68
2021/06/23 04:14:38;;;;;;;5.47;2.50;;;;;;;23.57;43.00;100269.22;5051848;28;20139;-68
2021/06/23 04:17:06;;;;;;;8.60;2.40;;;;;;;23.58;42.67;100269.03;5068573;28;20049;-67
2021/06/23 04:19:33;;;;;;;6.28;2.78;;;;;;;23.68;41.07;100269.78;5063732;28;20037;-68
2021/06/23 04:22:03;;;;;;;10.63;2.85;;;;;;;23.71;41.03;100260.66;5069387;28;20037;-67
2021/06/23 04:24:31;;;;;;;6.63;1.90;;;;;;;23.63;41.04;100264.09;5052404;28;20495;-68
2021/06/23 04:26:58;;;;;;;11.75;3.75;;;;;;;23.71;41.40;100256.16;5053670;28;20056;-67
2021/06/23 04:29:28;;;;;;;16.70;3.92;;;;;;;23.61;42.65;100255.44;5053251;28;20044;-68
2021/06/23 04:31:56;;;;;;;14.65;2.70;;;;;;;23.75;42.56;100260.16;5070373;28;20037;-68
2021/06/23 04:34:27;;;;;;;7.88;2.25;;;;;;;23.67;44.15;100261.97;5049409;28;20045;-69
2021/06/23 04:37:03;;;;;;;9.73;4.18;;;;;;;23.40;44.59;100263.00;5061451;28;20033;-68
2021/06/23 04:39:30;;;;;;;11.05;2.80;;;;;;;23.48;43.84;100268.34;5054960;28;20044;-67
2021/06/23 04:42:07;;;;;;;7.90;3.03;;;;;;;23.49;43.73;100265.53;5051266;28;20064;-67
2021/06/23 04:44:36;;;;;;;6.43;2.58;;;;;;;23.42;43.58;100269.81;5048641;28;20442;-67
2021/06/23 04:47:03;;;;;;;8.07;2.75;;;;;;;23.58;43.28;100265.56;5048266;28;20048;-67
2021/06/23 04:49:31;;;;;;;9.60;3.17;;;;;;;23.71;42.59;100266.81;5046904;28;20029;-67
2021/06/23 04:52:13;;;;;;;12.60;2.75;;;;;;;23.84;42.60;100265.50;5047605;28;20033;-67
2021/06/23 04:54:43;;;;;;;15.13;3.40;;;;;;;23.85;42.23;100272.50;5047998;28;20088;-67
2021/06/23 04:57:10;;;;;;;9.57;3.83;;;;;;;24.03;41.90;100271.41;5048264;28;20048;-67
2021/06/23 04:59:37;;;;;;;8.57;2.53;;;;;;;24.27;41.76;100283.09;5048587;28;20514;-68
2021/06/23 05:02:05;;;;;;;8.55;2.60;;;;;;;24.56;41.19;100280.81;5047991;28;20041;-67
2021/06/23 05:04:33;;;;;;;8.35;3.28;;;;;;;24.82;40.36;100283.31;5047341;28;20044;-67
2021/06/23 05:07:04;;;;;;;5.00;2.65;;;;;;;25.03;39.62;100284.59;5047846;28;20136;-67
2021/06/23 05:09:31;;;;;;;9.75;3.28;;;;;;;25.33;39.46;100281.22;5048799;28;20434;-67
2021/06/23 05:11:58;;;;;;;10.98;2.80;;;;;;;25.69;38.89;100285.28;5047934;28;20503;-67
2021/06/23 05:14:25;;;;;;;12.18;2.08;;;;;;;25.81;38.42;100284.75;5047895;28;20045;-67
2021/06/23 05:16:52;;;;;;;13.57;3.25;;;;;;;26.12;38.26;100283.91;5047492;28;20040;-67
2021/06/23 05:19:19;;;;;;;7.32;2.08;;;;;;;26.42;38.06;100284.94;5048757;28;20041;-67
2021/06/23 05:21:46;;;;;;;11.63;3.13;;;;;;;26.70;36.64;100292.38;5048654;28;20047;-67
2021/06/23 05:24:13;;;;;;;6.70;2.00;;;;;;;26.91;36.31;100289.84;5049192;28;20033;-68
2021/06/23 05:26:40;;;;;;;8.70;2.50;;;;;;;27.16;35.40;100295.81;5047878;28;20053;-67
2021/06/23 05:29:07;;;;;;;9.35;2.47;;;;;;;27.41;35.54;100289.19;5047999;28;20052;-68
2021/06/23 05:31:33;;;;;;;9.27;2.33;;;;;;;27.62;34.86;100293.78;5048172;28;20040;-67
2021/06/23 05:34:00;;;;;;;9.85;2.00;;;;;;;27.76;34.69;100304.72;5046879;28;20123;-67
2021/06/23 05:36:27;;;;;;;17.38;3.92;;;;;;;27.78;36.49;100308.84;5047847;28;20048;-67
2021/06/23 05:38:54;;;;;;;22.90;4.40;;;;;;;27.61;37.96;100310.88;5047458;28;20094;-67
2021/06/23 05:41:21;;;;;;;19.52;4.13;;;;;;;27.86;37.62;100311.44;5047986;28;20561;-67
2021/06/23 05:43:48;;;;;;;13.70;3.10;;;;;;;28.47;36.42;100305.72;5048252;28;20446;-67
2021/06/23 05:46:15;;;;;;;20.98;3.13;;;;;;;28.54;36.29;100306.63;5045135;28;20053;-67
2021/06/23 05:48:42;;;;;;;14.70;2.53;;;;;;;28.58;36.25;100318.63;5039280;28;20041;-68
2021/06/23 05:51:08;;;;;;;19.83;3.03;;;;;;;29.14;34.32;100313.34;5042160;28;20041;-67
2021/06/23 05:53:35;;;;;;;22.88;3.55;;;;;;;29.12;34.01;100323.44;5046136;28;20486;-65
2021/06/23 05:56:03;;;;;;;9.82;2.42;;;;;;;28.76;35.89;100328.88;5048314;28;20513;-65
2021/06/23 05:58:30;;;;;;;21.80;3.25;;;;;;;29.16;33.69;100329.25;5045615;28;20140;-68
2021/06/23 06:00:56;;;;;;;13.68;3.53;;;;;;;29.22;33.53;100337.34;5046708;28;20282;-68
2021/06/23 06:03:23;;;;;;;10.48;2.28;;;;;;;29.13;33.09;100341.19;5047307;28;20065;-67
2021/06/23 06:05:50;;;;;;;4.40;2.00;;;;;;;29.70;32.01;100342.00;5046318;28;20099;-67
2021/06/23 06:08:16;;;;;;;15.20;3.33;;;;;;;30.23;30.12;100342.25;5046832;28;20055;-69
2021/06/23 06:10:43;;;;;;;5.90;2.08;;;;;;;30.65;29.40;100341.06;5046969;28;20040;-66
2021/06/23 06:13:10;;;;;;;5.05;2.00;;;;;;;30.68;28.92;100340.69;5045406;28;20083;-66
2021/06/23 06:15:37;;;;;;;6.40;1.88;;;;;;;30.76;28.57;100351.25;5046447;28;20580;-65
2021/06/23 06:18:05;;;;;;;4.60;1.83;;;;;;;30.68;28.09;100348.75;5045585;28;20041;-64
2021/06/23 06:20:34;;;;;;;7.60;2.05;;;;;;;30.65;27.66;100354.53;5047114;28;20033;-67
2021/06/23 06:23:01;;;;;;;7.22;2.75;;;;;;;31.30;27.22;100358.31;5046057;28;20065;-68
2021/06/23 06:25:28;;;;;;;10.82;3.45;;;;;;;31.74;26.91;100354.06;5046814;28;20033;-66
2021/06/23 06:27:55;;;;;;;11.32;2.05;;;;;;;31.98;26.10;100352.56;5045925;28;20041;-66
2021/06/23 06:30:23;;;;;;;11.25;2.47;;;;;;;32.30;25.24;100356.13;5044485;28;20041;-66
2021/06/23 06:32:50;;;;;;;9.85;2.00;;;;;;;32.20;24.77;100357.63;5047719;28;20099;-66
2021/06/23 06:35:17;;;;;;;6.25;1.92;;;;;;;32.47;24.84;100358.34;5038260;28;20054;-67
2021/06/23 06:37:44;;;;;;;7.63;2.50;;;;;;;32.21;25.75;100365.50;5047435;28;20045;-67
2021/06/23 06:40:13;;;;;;;9.80;2.75;;;;;;;32.26;26.08;100354.06;5049076;28;20426;-66
2021/06/23 06:42:40;;;;;;;6.60;1.70;;;;;;;32.72;25.24;100364.59;5045789;28;20470;-67
2021/06/23 06:45:07;;;;;;;11.77;1.85;;;;;;;33.14;25.31;100364.91;5045787;28;20091;-67
2021/06/23 06:47:34;;;;;;;7.50;2.13;;;;;;;32.97;24.99;100370.06;5046685;28;20037;-65
2021/06/23 06:50:02;;;;;;;9.75;2.10;;;;;;;33.50;24.48;100374.16;5046764;28;20041;-63
2021/06/23 06:52:29;;;;;;;5.07;2.60;;;;;;;33.76;24.30;100367.63;5052316;28;20037;-61
2021/06/23 06:54:56;;;;;;;7.13;2.33;;;;;;;33.86;23.55;100363.34;5050123;28;20045;-62
2021/06/23 06:57:23;;;;;;;7.70;1.70;;;;;;;34.28;23.96;100362.63;5050357;28;20049;-63
2021/06/23 06:59:49;;;;;;;8.50;2.03;;;;;;;34.08;24.23;100366.41;5045547;28;20075;-62
2021/06/23 07:02:16;;;;;;;7.15;2.88;;;;;;;33.11;24.79;100371.56;5041613;28;20441;-63
2021/06/23 07:04:43;;;;;;;5.15;1.88;;;;;;;33.56;24.67;100365.16;5050633;28;20041;-62
2021/06/23 07:07:10;;;;;;;10.18;1.92;;;;;;;33.96;24.59;100353.91;5058935;28;20491;-67
2021/06/23 07:09:37;;;;;;;9.23;1.92;;;;;;;33.72;24.47;100353.75;5051724;28;20102;-66
2021/06/23 07:12:04;;;;;;;4.45;1.58;;;;;;;33.73;24.51;100351.88;5059214;28;20040;-65
2021/06/23 07:14:30;;;;;;;6.80;1.70;;;;;;;34.20;24.31;100352.97;5059222;28;20045;-65
2021/06/23 07:16:57;;;;;;;5.95;1.65;;;;;;;34.30;24.37;100353.22;5052533;28;20679;-65
2021/06/23 07:19:24;;;;;;;4.15;1.60;;;;;;;33.91;25.12;100351.03;5049184;28;20040;-65
2021/06/23 07:21:51;;;;;;;7.35;1.60;;;;;;;33.99;24.98;100345.34;5053877;28;20041;-66
2021/06/23 07:24:19;;;;;;;6.32;1.90;;;;;;;33.91;25.05;100332.91;5062988;28;20041;-65
2021/06/23 07:26:48;;;;;;;7.15;1.92;;;;;;;34.79;24.55;100326.91;5049791;28;20381;-64
2021/06/23 07:29:16;;;;;;;8.10;1.70;;;;;;;35.27;24.32;100335.91;5049946;28;20048;-65
2021/06/23 07:32:04;;;;;;;6.93;1.70;;;;;;;35.55;23.65;100337.88;5050652;28;20045;-63
2021/06/23 07:37:07;;;;;;;7.53;1.83;;;;;;;35.54;23.42;100331.66;5050697;28;20045;-64
2021/06/23 07:39:36;;;;;;;7.80;1.98;;;;;;;35.01;24.59;100342.63;5048463;28;20045;-64
2021/06/23 07:42:04;;;;;;;8.27;1.98;;;;;;;35.29;24.43;100345.44;5051750;28;20076;-63
2021/06/23 07:44:35;;;;;;;5.80;2.13;;;;;;;35.58;24.29;100342.81;5049916;28;20091;-62
2021/06/23 07:47:08;;;;;;;5.03;1.42;;;;;;;36.16;24.08;100339.13;5052449;28;20048;-63
2021/06/23 07:49:38;;;;;;;;;;;;;;;36.05;24.06;100346.25;5054716;28;20511;-64
2021/06/23 08:10:46;;;;;;;3.60;1.35;;;;;;;36.98;22.61;100347.66;5052927;28;20087;-64
2021/06/23 08:13:14;;;;;;;6.13;1.92;;;;;;;36.39;23.53;100339.03;5054132;28;20439;-64
2021/06/23 08:15:43;;;;;;;6.55;2.45;;;;;;;36.19;23.65;100344.06;5052063;28;20037;-64
2021/06/23 08:18:12;;;;;;;6.85;2.13;;;;;;;35.94;24.03;100337.09;5051712;28;20048;-64
2021/06/23 08:20:39;;;;;;;5.32;1.65;;;;;;;35.85;24.69;100343.94;5052342;28;20045;-64
2021/06/23 08:23:05;;;;;;;5.00;2.05;;;;;;;36.05;24.45;100338.09;5053242;28;20076;-65
2021/06/23 08:25:33;;;;;;;4.72;2.22;;;;;;;36.46;23.99;100339.72;5052644;28;20099;-65
2021/06/23 08:28:00;;;;;;;8.55;1.83;;;;;;;36.68;22.82;100339.00;5050969;28;20053;-65
2021/06/23 08:30:26;;;;;;;6.80;2.10;;;;;;;36.87;22.89;100340.41;5054680;28;20438;-65
2021/06/23 08:32:55;;;;;;;6.35;1.73;;;;;;;37.02;22.40;100341.72;5052696;28;20623;-65
2021/06/23 08:35:22;;;;;;;10.65;1.90;;;;;;;36.69;23.21;100337.91;5053206;28;20049;-63
2021/06/23 08:37:49;;;;;;;9.48;1.73;;;;;;;36.01;24.31;100347.81;5053778;28;20124;-66
2021/06/23 08:40:17;;;;;;;6.03;1.95;;;;;;;36.23;24.01;100345.25;5054004;28;20106;-65
2021/06/23 08:42:44;;;;;;;20.50;3.35;;;;;;;36.47;23.87;100345.97;5054011;28;20047;-67
2021/06/23 08:45:12;;;;;;;7.88;2.15;;;;;;;36.32;24.22;100345.66;5053508;28;20049;-64
2021/06/23 08:47:47;;;;;;;8.25;2.53;;;;;;;36.27;24.69;100345.56;5048380;28;20049;-64
2021/06/23 08:50:22;;;;;;;10.38;3.47;;;;;;;35.78;24.80;100342.41;5052102;28;20041;-64
2021/06/23 08:52:50;;;;;;;7.68;2.38;;;;;;;35.65;24.92;100335.41;5052653;28;20037;-65
2021/06/23 08:55:19;;;;;;;5.90;2.00;;;;;;;35.73;25.29;100345.84;5053464;28;20430;-65
2021/06/23 08:57:51;;;;;;;9.18;1.95;;;;;;;35.53;25.64;100345.41;5059431;28;20048;-64
2021/06/23 09:00:20;;;;;;;7.38;2.88;;;;;;;35.29;25.72;100348.13;5048747;28;20091;-64
2021/06/23 09:02:48;;;;;;;10.02;2.38;;;;;;;35.15;25.62;100352.13;5055352;28;20472;-63
2021/06/23 09:05:17;;;;;;;9.00;2.08;;;;;;;35.10;25.76;100363.72;5050912;28;20140;-62
2021/06/23 09:07:55;;;;;;;3.97;1.80;;;;;;;34.90;26.31;100364.00;5053326;28;20037;-64
2021/06/23 09:10:28;;;;;;;7.50;1.80;;;;;;;34.92;26.29;100367.28;5053906;28;20045;-62
2021/06/23 09:13:01;;;;;;;4.63;1.90;;;;;;;34.86;26.61;100370.13;5052480;28;20039;-62
2021/06/23 09:15:57;;;;;;;4.90;2.05;;;;;;;34.76;26.13;100362.56;5055113;28;20052;-63
2021/06/23 09:18:35;;;;;;;7.28;1.92;;;;;;;34.69;26.60;100361.03;5057050;28;20044;-64
2021/06/23 09:21:11;;;;;;;8.60;2.58;;;;;;;34.64;26.81;100362.53;5054026;28;20415;-62
2021/06/23 09:23:42;;;;;;;9.15;2.63;;;;;;;34.59;26.99;100367.00;5062528;28;20128;-63
2021/06/23 09:26:42;;;;;;;5.90;2.25;;;;;;;34.54;27.13;100364.97;5052034;28;20041;-64
2021/06/23 09:29:09;;;;;;;11.52;1.80;;;;;;;34.39;27.26;100373.50;5051729;28;20094;-62
2021/06/23 09:31:53;;;;;;;7.22;2.28;;;;;;;34.22;27.64;100367.06;5051707;28;20099;-63
2021/06/23 09:34:39;;;;;;;6.22;2.92;;;;;;;34.15;28.15;100371.75;5052397;28;20048;-61
2021/06/23 09:37:31;;;;;;;13.52;2.55;;;;;;;34.14;28.07;100348.44;5046646;28;20104;-63
2021/06/23 09:40:19;;;;;;;8.48;2.00;;;;;;;34.13;27.66;100358.44;5044064;28;20500;-63
2021/06/23 09:42:54;;;;;;;7.93;2.40;;;;;;;33.93;28.23;100352.50;5051812;28;20389;-63
2021/06/23 09:45:21;;;;;;;8.90;2.35;;;;;;;33.04;28.36;100360.03;5049161;28;20045;-63
2021/06/23 09:47:58;;;;;;;6.53;2.75;;;;;;;32.25;29.58;100355.94;5045296;28;20055;-64
2021/06/23 09:50:27;;;;;;;13.20;2.33;;;;;;;32.49;28.70;100362.50;5047806;28;20091;-64
2021/06/23 09:53:05;;;;;;;11.48;3.33;;;;;;;32.29;29.13;100353.66;5046752;28;20467;-63
2021/06/23 09:55:42;;;;;;;8.90;2.42;;;;;;;32.65;28.72;100366.50;5048665;28;20557;-65
2021/06/23 09:58:19;;;;;;;7.55;2.28;;;;;;;32.97;28.25;100363.81;5048976;28;20057;-64
2021/06/23 10:01:09;;;;;;;4.45;1.98;;;;;;;32.71;28.56;100359.44;5050057;28;20122;-64
2021/06/23 10:03:57;;;;;;;9.33;2.40;;;;;;;32.65;28.82;100361.09;5046485;28;20092;-64
2021/06/23 10:06:32;;;;;;;5.65;1.90;;;;;;;32.48;29.26;100354.59;5047242;28;20450;-65
2021/06/23 10:09:13;;;;;;;10.88;3.17;;;;;;;32.41;29.05;100348.41;5047333;28;20811;-63
2021/06/23 10:11:41;;;;;;;7.80;2.33;;;;;;;32.31;29.58;100348.84;5044416;28;20044;-63
2021/06/23 10:14:09;;;;;;;11.98;2.30;;;;;;;32.58;29.75;100350.38;5049030;28;20041;-64
2021/06/23 10:16:38;;;;;;;4.88;2.33;;;;;;;32.55;29.50;100355.41;5052510;28;20044;-65
2021/06/23 10:19:07;;;;;;;12.35;3.53;;;;;;;32.67;29.45;100350.94;5052214;28;20469;-62
2021/06/23 10:21:36;;;;;;;7.95;2.50;;;;;;;32.66;28.95;100352.00;5051180;28;20037;-64
2021/06/23 10:24:05;;;;;;;7.32;2.53;;;;;;;32.69;29.08;100346.13;5052328;28;20040;-63
2021/06/23 10:26:32;;;;;;;4.60;1.98;;;;;;;32.80;29.29;100348.13;5051481;28;20045;-64
2021/06/23 10:29:01;;;;;;;12.95;3.03;;;;;;;32.76;29.11;100355.03;5049363;28;20572;-65
2021/06/23 10:31:28;;;;;;;7.05;2.80;;;;;;;32.65;29.47;100352.19;5051105;28;20488;-62
2021/06/23 10:33:55;;;;;;;12.20;2.80;;;;;;;32.61;28.97;100349.13;5051519;28;20044;-63
2021/06/23 10:36:24;;;;;;;8.57;3.33;;;;;;;32.66;29.82;100346.59;5050348;28;20059;-63
2021/06/23 10:38:52;;;;;;;7.75;2.17;;;;;;;32.73;29.33;100341.97;5050604;28;20549;-65
2021/06/23 10:41:21;;;;;;;8.07;2.85;;;;;;;32.59;28.74;100343.09;5052556;28;20064;-64
2021/06/23 10:44:25;;;;;;;10.90;3.00;;;;;;;32.66;28.96;100334.97;5052003;28;20036;-64
2021/06/23 10:46:57;;;;;;;12.52;3.65;;;;;;;32.60;29.30;100333.97;5051401;28;20053;-64
2021/06/23 10:49:49;;;;;;;6.80;2.42;;;;;;;32.26;30.25;100330.63;5052591;28;20049;-64
2021/06/23 10:52:26;;;;;;;16.90;2.42;;;;;;;32.51;29.77;100316.41;5052175;28;20047;-65
2021/06/23 10:54:57;;;;;;;11.38;2.58;;;;;;;32.65;29.70;100315.22;5050825;28;20033;-64
2021/06/23 10:57:28;;;;;;;7.07;3.03;;;;;;;32.41;29.79;100322.25;5054028;28;20045;-64
2021/06/23 10:59:57;;;;;;;5.20;2.15;;;;;;;32.08;30.68;100319.75;5049235;28;20597;-62
2021/06/23 11:02:38;;;;;;;8.73;2.28;;;;;;;32.15;30.52;100317.00;5052074;28;20357;-64
2021/06/23 11:05:11;;;;;;;10.82;3.35;;;;;;;32.21;30.24;100319.66;5049487;28;20075;-64
2021/06/23 11:07:45;;;;;;;5.72;2.85;;;;;;;32.31;30.05;100317.31;5049335;28;20134;-65
2021/06/23 11:10:18;;;;;;;8.88;2.40;;;;;;;32.19;30.39;100312.84;5050683;28;20037;-64
2021/06/23 11:12:45;;;;;;;6.07;2.60;;;;;;;32.07;30.13;100310.00;5051210;28;20477;-64
2021/06/23 11:15:30;;;;;;;6.03;2.63;;;;;;;32.24;29.75;100310.31;5051588;28;20150;-64
2021/06/23 11:18:28;;;;;;;4.80;2.20;;;;;;;32.22;30.26;100305.13;5055625;28;20047;-63
2021/06/23 11:21:17;;;;;;;6.22;2.28;;;;;;;32.26;29.90;100306.34;5045821;28;20130;-66
2021/06/23 11:23:48;;;;;;;14.88;2.92;;;;;;;32.00;29.90;100298.41;5039622;28;20053;-64
2021/06/23 11:26:18;;;;;;;4.32;2.83;;;;;;;31.90;30.21;100304.25;5049255;28;20049;-65
2021/06/23 11:28:47;;;;;;;9.00;2.97;;;;;;;31.97;30.83;100304.25;5055046;28;20041;-62
2021/06/23 11:31:14;;;;;;;6.75;2.40;;;;;;;32.01;30.17;100300.06;5052751;28;20075;-63
2021/06/23 11:33:42;;;;;;;7.00;2.63;;;;;;;32.08;30.62;100290.91;5054903;28;20037;-63
2021/06/23 11:36:14;;;;;;;9.82;2.55;;;;;;;32.15;30.31;100290.84;5058226;28;20051;-61
2021/06/23 11:38:42;;;;;;;7.00;2.95;;;;;;;32.19;30.33;100286.69;5054010;28;20041;-62
2021/06/23 11:41:10;;;;;;;7.05;2.53;;;;;;;32.09;29.73;100283.63;5054238;28;20041;-62
2021/06/23 11:43:38;;;;;;;10.10;2.97;;;;;;;32.12;29.90;100279.66;5052825;28;20048;-64
2021/06/23 11:46:05;;;;;;;10.50;2.42;;;;;;;32.15;29.82;100280.06;5048614;28;20053;-62
2021/06/23 11:48:32;;;;;;;8.23;2.63;;;;;;;32.20;29.58;100276.72;5053649;28;20064;-62
2021/06/23 11:50:59;;;;;;;10.02;2.45;;;;;;;32.18;29.71;100282.34;5050504;28;20381;-60
2021/06/23 11:53:26;;;;;;;7.32;3.53;;;;;;;32.08;29.37;100276.59;5054075;28;20141;-63
2021/06/23 11:55:53;;;;;;;13.63;2.97;;;;;;;32.04;29.26;100267.28;5052690;28;20037;-62
2021/06/23 11:58:20;;;;;;;8.52;2.25;;;;;;;32.10;29.55;100269.09;5053897;28;20171;-64
2021/06/23 12:00:48;;;;;;;8.07;2.35;;;;;;;31.87;29.15;100269.66;5054203;28;20123;-62
2021/06/23 12:03:17;;;;;;;15.30;3.45;;;;;;;31.93;29.42;100273.38;5054749;28;20403;-63